Terminal Aerodrome Forecast
Issued by NWS Lake Charles, LA

Home | Current Version | Previous Version | Text Only | Print | Product List | Glossary On
Versions: 1 2 3 4 5 6 7 8 9 10 11 12 13 14 15 16
000
FTUS44 KLCH 201700
TAFAEX
TAF
KAEX 201740Z 2018/2118 17007KT P6SM SCT040 SCT250
     FM202000 17007KT P6SM VCTS SCT040CB BKN250
      TEMPO 2021/2023 5SM -TSRA SCT025 BKN040CB
     FM202300 17003KT P6SM SCT220
     FM210800 17003KT 3SM BR FEW100 SCT250
     FM211400 17008KT P6SM SCT040 SCT200=

USA.gov is the U.S. government's official web portal to all federal, state and local government web resources and services.